Atalandi — SVBA — position and weather

sailwx.info

Track history (hours):
 
Tides and Currents Weather Stations Pressure Air Temp Water Temp Dewpoint Dewpoint Depression Visibility Wind Speed Wind Dir Waves Ship Positions

Atalandi

Last reported at 2015-Jun-26 04:23 UTC. Time now 2015-Jun-30 16:51 UTC.
Position N 17°08' W 061°01'.

Length 248 m; draft 10.4 m.

Type: Ship (hazmat cat A). MMSI: 240269000.

Date/timePositionNaut miles runAvg speedWind from/ knotsBaromVisibWave heightAir tempDewpointWater temp
2015-Jun-26 04:23N 17°08' W 061°01'1113.6
2015-Jun-26 03:33N 17°02' W 061°10'1413.5
2015-Jun-26 02:33N 16°55' W 061°22'1413.6
2015-Jun-26 01:33N 16°47' W 061°34'1413.7
2015-Jun-26 00:33N 16°40' W 061°46'1312.9
2015-Jun-25 23:33N 16°35' W 061°59'1313.1
2015-Jun-25 22:33N 16°30' W 062°11'1312.9
2015-Jun-25 21:33N 16°26' W 062°24'1313.2
2015-Jun-25 20:33N 16°21' W 062°37'  
Track history (hours):
 
Tides and Currents Weather Stations Pressure Air Temp Water Temp Dewpoint Dewpoint Depression Visibility Wind Speed Wind Dir Waves Ship Positions

Atalandi

Last reported at 2015-Jun-26 04:23 UTC. Time now 2015-Jun-30 16:51 UTC.
Position N 17°08' W 061°01'.

Length 248 m; draft 10.4 m.

Type: Ship (hazmat cat A). MMSI: 240269000.

Date/timePositionNaut miles runAvg speedWind from/ knotsBaromVisibWave heightAir tempDewpointWater temp
2015-Jun-26 04:23N 17°08' W 061°01'1113.6
2015-Jun-26 03:33N 17°02' W 061°10'1413.5
2015-Jun-26 02:33N 16°55' W 061°22'1413.6
2015-Jun-26 01:33N 16°47' W 061°34'1413.7
2015-Jun-26 00:33N 16°40' W 061°46'1312.9
2015-Jun-25 23:33N 16°35' W 061°59'1313.1
2015-Jun-25 22:33N 16°30' W 062°11'1312.9
2015-Jun-25 21:33N 16°26' W 062°24'1313.2
2015-Jun-25 20:33N 16°21' W 062°37'  

Dump ship's entire track history